Alvada, Ohio
Current Conditions -  °F | °C
As of 1:53 AM on Sunday 26 Oct 2014 (Local Time) from KFDY Reporting Station
Haze Haze  
Wind Chill:   Ceiling: Unl
Heat Index:   Visibility: 4mi
Dew Point:   Wind: 7mph
Humidity: 65%   Direction: 260°W
Pressure: 29.88"   Gusts: NA
Location:  41.05°N, 83.4°W
Report Text: KFDY 260553Z AUTO 26006KT 4SM HZ CLR 07/01 A2988 RMK AO2 SLP113 T00720011 10161 20067 51004
Loading
Personal Weather Stations






























Interactive Weather Map
Tropical Storm Tracking
New forecast layout! Learn more

10-Day Weather Forecast

Advertisements
Track Severe Weather on mobile